Terminal Aerodrome Forecast
Issued by NWS

Home | Current Version | Previous Version | Text Only | Print | Product List | Glossary On
Versions: 1 2 3 4 5 6 7 8 9 10 11 12
000
FTUS42 KMHX 271135
TAFOAJ
TAF
KOAJ 271135Z 2712/2812 VRB05KT P6SM FEW250
     FM271800 14007KT P6SM SCT040 BKN150
     FM280600 15003KT P6SM SCT030 BKN100
      AMD LTD TO CLD VIS AND WIND=

USA.gov is the U.S. government's official web portal to all federal, state and local government web resources and services.